sensor_id;sensor_type;location;lat;lon;timestamp;pressure;altitude;pressure_sealevel;temperature;humidity
38558;BME280;24333;42.626;23.308;2023-02-05T00:02:08;92161.00;;;-5.64;100.00
38558;BME280;24333;42.626;23.308;2023-02-05T00:04:34;92146.75;;;-5.78;100.00
38558;BME280;24333;42.626;23.308;2023-02-05T00:07:00;92154.66;;;-5.68;100.00
38558;BME280;24333;42.626;23.308;2023-02-05T00:09:26;92146.72;;;-5.73;100.00
38558;BME280;24333;42.626;23.308;2023-02-05T00:11:53;92151.50;;;-5.70;100.00
38558;BME280;24333;42.626;23.308;2023-02-05T00:14:19;92154.66;;;-5.68;100.00
38558;BME280;24333;42.626;23.308;2023-02-05T00:16:44;92151.28;;;-5.79;100.00
38558;BME280;24333;42.626;23.308;2023-02-05T00:19:10;92162.91;;;-5.70;100.00
38558;BME280;24333;42.626;23.308;2023-02-05T00:21:35;92150.38;;;-5.64;100.00
38558;BME280;24333;42.626;23.308;2023-02-05T00:24:01;92161.09;;;-5.74;100.00
38558;BME280;24333;42.626;23.308;2023-02-05T00:26:26;92145.19;;;-5.79;100.00
38558;BME280;24333;42.626;23.308;2023-02-05T00:28:52;92146.94;;;-5.64;100.00
38558;BME280;24333;42.626;23.308;2023-02-05T00:31:20;92171.56;;;-5.54;100.00
38558;BME280;24333;42.626;23.308;2023-02-05T00:33:46;92154.66;;;-5.68;100.00
38558;BME280;24333;42.626;23.308;2023-02-05T00:36:13;92167.97;;;-5.73;100.00
38558;BME280;24333;42.626;23.308;2023-02-05T00:38:40;63654.44;;;-148.95;100.00
38558;BME280;24333;42.626;23.308;2023-02-05T00:41:05;63654.44;;;-148.95;100.00
38558;BME280;24333;42.626;23.308;2023-02-05T00:43:31;63654.44;;;-148.95;100.00
38558;BME280;24333;42.626;23.308;2023-02-05T00:45:57;63654.44;;;-148.95;100.00
38558;BME280;24333;42.626;23.308;2023-02-05T00:48:22;63654.44;;;-148.95;100.00
38558;BME280;24333;42.626;23.308;2023-02-05T00:50:51;63654.44;;;-148.95;100.00
38558;BME280;24333;42.626;23.308;2023-02-05T00:53:18;63654.44;;;-148.95;100.00
38558;BME280;24333;42.626;23.308;2023-02-05T00:55:45;63654.44;;;-148.95;100.00
38558;BME280;24333;42.626;23.308;2023-02-05T00:58:10;63654.44;;;-148.95;100.00
38558;BME280;24333;42.626;23.308;2023-02-05T01:00:36;63654.44;;;-148.95;100.00
38558;BME280;24333;42.626;23.308;2023-02-05T01:03:02;63654.44;;;-148.95;100.00
38558;BME280;24333;42.626;23.308;2023-02-05T01:05:27;63654.44;;;-148.95;100.00
38558;BME280;24333;42.626;23.308;2023-02-05T01:07:55;63654.44;;;-148.95;100.00
38558;BME280;24333;42.626;23.308;2023-02-05T01:10:21;63654.44;;;-148.95;100.00
38558;BME280;24333;42.626;23.308;2023-02-05T01:12:50;63654.44;;;-148.95;100.00
38558;BME280;24333;42.626;23.308;2023-02-05T01:15:16;63654.44;;;-148.95;100.00
38558;BME280;24333;42.626;23.308;2023-02-05T01:17:41;63654.44;;;-148.95;100.00
38558;BME280;24333;42.626;23.308;2023-02-05T01:20:09;63654.44;;;-148.95;100.00
38558;BME280;24333;42.626;23.308;2023-02-05T01:22:35;63654.44;;;-148.95;100.00
38558;BME280;24333;42.626;23.308;2023-02-05T01:25:01;63654.44;;;-148.95;100.00
38558;BME280;24333;42.626;23.308;2023-02-05T01:27:27;63654.44;;;-148.95;100.00
38558;BME280;24333;42.626;23.308;2023-02-05T01:29:52;63654.44;;;-148.95;100.00
38558;BME280;24333;42.626;23.308;2023-02-05T01:32:18;63654.44;;;-148.95;100.00
38558;BME280;24333;42.626;23.308;2023-02-05T01:34:44;63654.44;;;-148.95;100.00
38558;BME280;24333;42.626;23.308;2023-02-05T01:37:10;63654.44;;;-148.95;100.00
38558;BME280;24333;42.626;23.308;2023-02-05T01:39:36;63654.44;;;-148.95;100.00
38558;BME280;24333;42.626;23.308;2023-02-05T01:42:24;63654.44;;;-148.95;100.00
38558;BME280;24333;42.626;23.308;2023-02-05T01:47:44;63654.44;;;-148.95;100.00
38558;BME280;24333;42.626;23.308;2023-02-05T01:50:10;63654.44;;;-148.95;100.00
38558;BME280;24333;42.626;23.308;2023-02-05T01:52:36;63654.44;;;-148.95;100.00
38558;BME280;24333;42.626;23.308;2023-02-05T01:55:03;63654.44;;;-148.95;100.00
38558;BME280;24333;42.626;23.308;2023-02-05T02:02:41;63654.44;;;-148.95;100.00
38558;BME280;24333;42.626;23.308;2023-02-05T02:05:15;63654.44;;;-148.95;100.00
38558;BME280;24333;42.626;23.308;2023-02-05T02:07:41;63654.44;;;-148.95;100.00
38558;BME280;24333;42.626;23.308;2023-02-05T02:10:19;63654.44;;;-148.95;100.00
38558;BME280;24333;42.626;23.308;2023-02-05T02:12:59;63654.44;;;-148.95;100.00
38558;BME280;24333;42.626;23.308;2023-02-05T02:15:26;63654.44;;;-148.95;100.00
38558;BME280;24333;42.626;23.308;2023-02-05T02:17:59;63654.44;;;-148.95;100.00
38558;BME280;24333;42.626;23.308;2023-02-05T02:20:47;63654.44;;;-148.95;100.00
38558;BME280;24333;42.626;23.308;2023-02-05T02:29:10;63654.44;;;-148.95;100.00
38558;BME280;24333;42.626;23.308;2023-02-05T02:31:44;63654.44;;;-148.95;100.00
38558;BME280;24333;42.626;23.308;2023-02-05T02:34:17;63654.44;;;-148.95;100.00
38558;BME280;24333;42.626;23.308;2023-02-05T02:36:58;63654.44;;;-148.95;100.00
38558;BME280;24333;42.626;23.308;2023-02-05T02:39:40;63654.44;;;-148.95;100.00
38558;BME280;24333;42.626;23.308;2023-02-05T02:42:18;63654.44;;;-148.95;100.00
38558;BME280;24333;42.626;23.308;2023-02-05T02:44:58;63654.44;;;-148.95;100.00
38558;BME280;24333;42.626;23.308;2023-02-05T02:47:28;63654.44;;;-148.95;100.00
38558;BME280;24333;42.626;23.308;2023-02-05T02:49:59;63654.44;;;-148.95;100.00
38558;BME280;24333;42.626;23.308;2023-02-05T02:52:32;63654.44;;;-148.95;100.00
38558;BME280;24333;42.626;23.308;2023-02-05T02:55:01;63654.44;;;-148.95;100.00
38558;BME280;24333;42.626;23.308;2023-02-05T02:57:34;63654.44;;;-148.95;100.00
38558;BME280;24333;42.626;23.308;2023-02-05T03:00:03;63654.44;;;-148.95;100.00
38558;BME280;24333;42.626;23.308;2023-02-05T03:02:31;63654.44;;;-148.95;100.00
38558;BME280;24333;42.626;23.308;2023-02-05T03:05:03;63654.44;;;-148.95;100.00
38558;BME280;24333;42.626;23.308;2023-02-05T03:08:06;63654.44;;;-148.95;100.00
38558;BME280;24333;42.626;23.308;2023-02-05T03:11:00;63654.44;;;-148.95;100.00
38558;BME280;24333;42.626;23.308;2023-02-05T03:13:27;63654.44;;;-148.95;100.00
38558;BME280;24333;42.626;23.308;2023-02-05T03:52:15;63654.44;;;-148.95;100.00
38558;BME280;24333;42.626;23.308;2023-02-05T03:55:18;63654.44;;;-148.95;100.00
38558;BME280;24333;42.626;23.308;2023-02-05T03:58:35;63654.44;;;-148.95;100.00
38558;BME280;24333;42.626;23.308;2023-02-05T04:02:13;63654.44;;;-148.95;100.00
38558;BME280;24333;42.626;23.308;2023-02-05T04:04:55;63654.44;;;-148.95;100.00
38558;BME280;24333;42.626;23.308;2023-02-05T04:15:17;63654.44;;;-148.95;100.00
38558;BME280;24333;42.626;23.308;2023-02-05T04:17:47;63654.44;;;-148.95;100.00
38558;BME280;24333;42.626;23.308;2023-02-05T04:20:40;63654.44;;;-148.95;100.00
38558;BME280;24333;42.626;23.308;2023-02-05T04:23:13;63654.44;;;-148.95;100.00
38558;BME280;24333;42.626;23.308;2023-02-05T04:25:42;63654.44;;;-148.95;100.00
38558;BME280;24333;42.626;23.308;2023-02-05T04:28:38;63654.44;;;-148.95;100.00
38558;BME280;24333;42.626;23.308;2023-02-05T04:31:14;63654.44;;;-148.95;100.00
38558;BME280;24333;42.626;23.308;2023-02-05T04:34:08;63654.44;;;-148.95;100.00
38558;BME280;24333;42.626;23.308;2023-02-05T04:37:35;63654.44;;;-148.95;100.00
38558;BME280;24333;42.626;23.308;2023-02-05T04:40:14;63654.44;;;-148.95;100.00
38558;BME280;24333;42.626;23.308;2023-02-05T04:43:16;63654.44;;;-148.95;100.00
38558;BME280;24333;42.626;23.308;2023-02-05T04:46:18;63654.44;;;-148.95;100.00
38558;BME280;24333;42.626;23.308;2023-02-05T04:49:00;63654.44;;;-148.95;100.00
38558;BME280;24333;42.626;23.308;2023-02-05T04:51:41;63654.44;;;-148.95;100.00
38558;BME280;24333;42.626;23.308;2023-02-05T04:54:35;63654.44;;;-148.95;100.00
38558;BME280;24333;42.626;23.308;2023-02-05T04:57:33;63654.44;;;-148.95;100.00
38558;BME280;24333;42.626;23.308;2023-02-05T05:00:33;63654.44;;;-148.95;100.00
38558;BME280;24333;42.626;23.308;2023-02-05T05:03:18;63654.44;;;-148.95;100.00
38558;BME280;24333;42.626;23.308;2023-02-05T05:13:44;63654.44;;;-148.95;100.00
38558;BME280;24333;42.626;23.308;2023-02-05T05:17:19;63654.44;;;-148.95;100.00
